createdAt,value
2023-02-03T00:00:41.890Z,7.20
2023-02-03T00:03:27.598Z,7.30
2023-02-03T00:06:13.148Z,7.30
2023-02-03T00:09:00.787Z,7.20
2023-02-03T00:11:45.997Z,7.20
2023-02-03T00:14:33.582Z,7.20
2023-02-03T00:17:18.682Z,7.30
2023-02-03T00:20:04.648Z,7.30
2023-02-03T00:22:50.196Z,7.20
2023-02-03T00:25:35.865Z,7.20
2023-02-03T00:28:21.404Z,7.30
2023-02-03T00:31:14.042Z,7.20
2023-02-03T00:33:59.456Z,7.30
2023-02-03T00:36:48.020Z,7.30
2023-02-03T00:39:37.164Z,7.30
2023-02-03T00:42:22.660Z,7.30
2023-02-03T00:45:08.529Z,7.30
2023-02-03T00:47:54.089Z,7.20
2023-02-03T00:50:39.988Z,7.10
2023-02-03T00:53:25.464Z,7.20
2023-02-03T00:56:12.756Z,7.20
2023-02-03T00:58:58.227Z,7.20
2023-02-03T01:01:43.750Z,7.30
2023-02-03T01:04:29.334Z,7.10
2023-02-03T01:07:14.837Z,7.20
2023-02-03T01:10:00.479Z,7.20
2023-02-03T01:12:46.033Z,7.20
2023-02-03T01:15:31.647Z,7.00
2023-02-03T01:18:16.952Z,6.90
2023-02-03T01:21:07.227Z,7.00
2023-02-03T01:23:53.972Z,7.00
2023-02-03T01:26:39.186Z,7.00
2023-02-03T01:29:24.745Z,7.10
2023-02-03T01:32:10.281Z,7.00
2023-02-03T01:34:55.603Z,7.10
2023-02-03T01:37:41.189Z,7.00
2023-02-03T01:40:26.739Z,7.00
2023-02-03T01:43:28.280Z,7.00
2023-02-03T01:46:37.221Z,7.10
2023-02-03T01:49:27.345Z,7.10
2023-02-03T01:52:12.797Z,7.10
2023-02-03T01:55:00.170Z,7.10
2023-02-03T01:57:51.872Z,7.20
2023-02-03T02:00:37.854Z,7.20
2023-02-03T02:03:27.860Z,7.10
2023-02-03T02:06:14.433Z,7.10
2023-02-03T02:09:01.038Z,7.00
2023-02-03T02:11:46.719Z,7.00
2023-02-03T02:14:33.977Z,6.90
2023-02-03T02:17:40.932Z,6.90
2023-02-03T02:21:09.103Z,6.60
2023-02-03T02:24:22.652Z,6.90
2023-02-03T02:27:35.232Z,7.00
2023-02-03T02:31:00.373Z,7.00
2023-02-03T02:33:48.490Z,7.10
2023-02-03T02:37:04.774Z,7.10
2023-02-03T02:40:07.092Z,7.10
2023-02-03T02:43:20.926Z,7.00
2023-02-03T02:46:24.219Z,6.90
2023-02-03T02:49:16.463Z,6.90
2023-02-03T02:52:05.405Z,6.80
2023-02-03T02:54:54.543Z,6.80
2023-02-03T02:57:44.514Z,6.80
2023-02-03T03:00:31.603Z,6.60
2023-02-03T03:03:20.663Z,6.60
2023-02-03T03:06:11.391Z,6.50
2023-02-03T03:09:06.181Z,6.30
2023-02-03T03:11:58.454Z,6.40
2023-02-03T03:14:48.929Z,6.40
2023-02-03T03:17:40.475Z,6.40
2023-02-03T03:20:27.779Z,6.40
2023-02-03T03:23:23.798Z,6.50
2023-02-03T03:26:20.690Z,6.40
2023-02-03T03:29:27.633Z,6.50
2023-02-03T03:32:13.855Z,6.40
2023-02-03T03:35:01.623Z,6.40
2023-02-03T03:37:56.812Z,6.50
2023-02-03T03:41:04.941Z,6.30
2023-02-03T03:43:55.858Z,6.30
2023-02-03T03:46:51.904Z,6.20
2023-02-03T03:49:40.978Z,6.30
2023-02-03T03:52:30.888Z,6.40
2023-02-03T03:55:19.374Z,6.20
2023-02-03T03:58:09.436Z,6.10
2023-02-03T04:00:58.263Z,6.10
2023-02-03T04:03:48.098Z,6.00
2023-02-03T04:06:33.523Z,6.00
2023-02-03T04:09:18.997Z,6.10
2023-02-03T04:12:06.315Z,6.20
2023-02-03T04:14:51.637Z,6.30
2023-02-03T04:17:37.304Z,6.30
2023-02-03T04:20:23.925Z,6.30
2023-02-03T04:23:09.951Z,6.20
2023-02-03T04:25:55.403Z,6.30
2023-02-03T04:28:40.797Z,6.40
2023-02-03T04:31:26.442Z,6.40
2023-02-03T04:34:12.188Z,6.40
2023-02-03T04:36:57.578Z,6.50
2023-02-03T04:39:43.148Z,6.50
2023-02-03T04:42:29.087Z,6.60
2023-02-03T04:45:14.276Z,6.60
2023-02-03T04:47:59.745Z,6.00
2023-02-03T04:50:45.228Z,6.50
2023-02-03T04:53:31.501Z,6.50
2023-02-03T04:56:16.913Z,6.50
2023-02-03T04:59:02.560Z,6.60
2023-02-03T05:01:47.797Z,6.70
2023-02-03T05:04:33.269Z,6.70
2023-02-03T05:07:18.794Z,6.70
2023-02-03T05:10:04.468Z,6.70
2023-02-03T05:12:49.808Z,6.60
2023-02-03T05:15:35.369Z,6.60
2023-02-03T05:18:20.764Z,6.50
2023-02-03T05:21:06.609Z,6.50
2023-02-03T05:23:52.139Z,6.70
2023-02-03T05:26:37.633Z,6.50
2023-02-03T05:29:23.138Z,6.40
2023-02-03T05:32:08.642Z,6.40
2023-02-03T05:34:54.177Z,6.40
2023-02-03T05:37:39.540Z,6.30
2023-02-03T05:40:44.280Z,6.30
2023-02-03T05:43:29.711Z,6.20
2023-02-03T05:46:15.224Z,6.40
2023-02-03T05:49:00.846Z,6.40
2023-02-03T05:51:47.158Z,6.40
2023-02-03T05:54:32.535Z,6.50
2023-02-03T05:57:19.244Z,6.40
2023-02-03T06:00:07.272Z,6.40
2023-02-03T06:02:59.547Z,6.40
2023-02-03T06:05:44.994Z,6.40
2023-02-03T06:08:30.778Z,6.40
2023-02-03T06:11:16.140Z,6.40
2023-02-03T06:14:02.131Z,6.40
2023-02-03T06:16:47.387Z,6.50
2023-02-03T06:19:32.628Z,6.50
2023-02-03T06:22:18.253Z,6.50
2023-02-03T06:25:04.575Z,6.50
2023-02-03T06:27:50.623Z,6.70
2023-02-03T06:30:37.159Z,6.80
2023-02-03T06:33:22.895Z,6.80
2023-02-03T06:36:08.454Z,6.90
2023-02-03T06:38:54.171Z,7.00
2023-02-03T06:41:39.615Z,6.80
2023-02-03T06:44:25.211Z,6.90
2023-02-03T06:47:10.670Z,8.60
2023-02-03T06:49:56.392Z,6.90
2023-02-03T06:52:42.355Z,6.90
2023-02-03T06:55:27.819Z,6.90
2023-02-03T06:58:13.668Z,6.80
2023-02-03T07:00:58.754Z,6.90
2023-02-03T07:03:44.464Z,6.80
2023-02-03T07:06:32.344Z,6.70
2023-02-03T07:09:17.791Z,6.80
2023-02-03T07:12:03.216Z,6.70
2023-02-03T07:14:48.770Z,6.70
2023-02-03T07:17:34.359Z,6.70
2023-02-03T07:20:20.749Z,6.60
2023-02-03T07:23:06.024Z,6.50
2023-02-03T07:25:51.525Z,6.30
2023-02-03T07:28:37.205Z,6.20
2023-02-03T07:31:22.784Z,6.30
2023-02-03T07:34:08.284Z,6.40
2023-02-03T07:36:53.668Z,6.80
2023-02-03T07:39:39.090Z,6.20
2023-02-03T07:42:24.676Z,6.20
2023-02-03T07:45:12.700Z,6.30
2023-02-03T07:47:58.403Z,6.30
2023-02-03T07:50:45.638Z,6.40
2023-02-03T07:53:31.043Z,6.50
2023-02-03T07:56:16.763Z,6.50
2023-02-03T07:59:02.272Z,6.60
2023-02-03T08:01:47.683Z,6.60
2023-02-03T08:04:33.234Z,6.60
2023-02-03T08:07:18.689Z,6.60
2023-02-03T08:10:04.886Z,6.50
2023-02-03T08:12:53.600Z,6.60
2023-02-03T08:15:38.965Z,6.60
2023-02-03T08:18:24.639Z,6.80
2023-02-03T08:21:10.064Z,6.70
2023-02-03T08:23:55.706Z,6.70
2023-02-03T08:26:41.070Z,6.70
2023-02-03T08:29:26.756Z,6.80
2023-02-03T08:32:14.457Z,6.70
2023-02-03T08:35:00.015Z,6.70
2023-02-03T08:37:45.662Z,7.70
2023-02-03T08:40:31.516Z,6.60
2023-02-03T08:43:16.854Z,6.60
2023-02-03T08:46:04.383Z,6.70
2023-02-03T08:48:50.165Z,6.70
2023-02-03T08:51:35.366Z,6.70
2023-02-03T08:54:22.006Z,6.60
2023-02-03T08:57:07.886Z,6.60
2023-02-03T08:59:53.351Z,6.70
2023-02-03T09:02:39.040Z,6.90
2023-02-03T09:05:24.400Z,6.90
2023-02-03T09:08:10.030Z,6.90
2023-02-03T09:10:55.749Z,6.90
2023-02-03T09:13:45.708Z,7.00
2023-02-03T09:16:31.324Z,6.90
2023-02-03T09:19:16.845Z,6.80
2023-02-03T09:22:02.555Z,6.80
2023-02-03T09:24:50.579Z,7.00
2023-02-03T09:27:36.323Z,7.10
2023-02-03T09:30:21.767Z,7.10
2023-02-03T09:33:07.204Z,6.90
2023-02-03T09:35:57.402Z,6.80
2023-02-03T09:38:42.567Z,7.00
2023-02-03T09:41:48.019Z,7.00
2023-02-03T09:44:42.745Z,6.80
2023-02-03T09:47:32.801Z,7.00
2023-02-03T09:50:27.872Z,7.10
2023-02-03T09:53:43.314Z,7.10
2023-02-03T09:56:36.580Z,7.20
2023-02-03T09:59:26.672Z,7.20
2023-02-03T10:02:28.133Z,7.30
2023-02-03T10:05:25.315Z,7.30
2023-02-03T10:08:35.011Z,7.50
2023-02-03T10:11:37.547Z,7.50
2023-02-03T10:14:25.721Z,7.50
2023-02-03T10:17:37.771Z,7.60
2023-02-03T10:20:33.429Z,7.40
2023-02-03T10:23:31.555Z,7.50
2023-02-03T10:26:21.381Z,7.50
2023-02-03T10:29:32.941Z,7.60
2023-02-03T10:32:18.393Z,7.70
2023-02-03T10:35:10.950Z,7.90
2023-02-03T10:37:58.575Z,8.10
2023-02-03T10:40:44.310Z,8.00
2023-02-03T10:43:47.383Z,8.10
2023-02-03T10:46:35.976Z,8.20
2023-02-03T10:49:22.388Z,8.30
2023-02-03T10:52:07.564Z,8.30
2023-02-03T10:54:53.305Z,8.40
2023-02-03T10:57:42.072Z,8.50
2023-02-03T11:00:30.405Z,8.70
2023-02-03T11:03:29.243Z,8.70
2023-02-03T11:06:17.276Z,8.70
2023-02-03T11:09:21.449Z,9.20
2023-02-03T11:12:13.331Z,8.70
2023-02-03T11:15:06.131Z,8.70
2023-02-03T11:17:51.824Z,8.70
2023-02-03T11:20:37.332Z,8.70
2023-02-03T11:23:23.575Z,8.70
2023-02-03T11:26:12.401Z,8.50
2023-02-03T11:29:00.756Z,8.60
2023-02-03T11:31:53.308Z,8.70
2023-02-03T11:34:39.489Z,8.70
2023-02-03T11:37:41.328Z,8.70
2023-02-03T11:40:34.303Z,8.90
2023-02-03T11:43:22.862Z,8.80
2023-02-03T11:46:09.839Z,8.70
2023-02-03T11:49:08.858Z,8.40
2023-02-03T11:52:32.766Z,8.50
2023-02-03T11:55:21.103Z,8.40
2023-02-03T11:58:24.230Z,8.50
2023-02-03T12:01:44.108Z,8.60
2023-02-03T12:05:00.401Z,8.50
2023-02-03T12:08:20.053Z,8.60
2023-02-03T12:11:40.466Z,8.70
2023-02-03T12:14:44.606Z,8.50
2023-02-03T12:17:48.679Z,8.60
2023-02-03T12:20:45.807Z,8.70
2023-02-03T12:23:52.786Z,8.60
2023-02-03T12:26:59.097Z,8.60
2023-02-03T12:29:51.305Z,8.70
2023-02-03T12:32:44.582Z,8.70
2023-02-03T12:35:39.833Z,8.70
2023-02-03T12:38:35.234Z,8.70
2023-02-03T12:41:29.247Z,8.60
2023-02-03T12:44:31.256Z,8.60
2023-02-03T12:47:37.265Z,8.60
2023-02-03T12:50:50.444Z,8.50
2023-02-03T12:53:41.257Z,8.70
2023-02-03T12:56:34.344Z,8.80
2023-02-03T12:59:24.782Z,8.90
2023-02-03T13:02:18.804Z,8.80
2023-02-03T13:05:26.683Z,8.70
2023-02-03T13:08:20.937Z,8.70
2023-02-03T13:11:43.764Z,8.80
2023-02-03T13:14:34.834Z,8.90
2023-02-03T13:17:42.929Z,8.90
2023-02-03T13:20:31.659Z,8.90
2023-02-03T13:23:17.441Z,9.10
2023-02-03T13:26:12.801Z,8.90
2023-02-03T13:29:03.668Z,8.70
2023-02-03T13:32:16.296Z,8.80
2023-02-03T13:35:18.703Z,8.70
2023-02-03T13:38:43.893Z,8.70
2023-02-03T13:41:45.151Z,8.60
2023-02-03T13:44:30.914Z,8.60
2023-02-03T13:47:29.026Z,8.50
2023-02-03T13:50:24.617Z,8.70
2023-02-03T13:53:22.319Z,8.70
2023-02-03T13:56:16.557Z,8.80
2023-02-03T13:59:13.989Z,8.60
2023-02-03T14:02:27.170Z,8.60
2023-02-03T14:05:42.372Z,8.60
2023-02-03T14:08:27.542Z,8.50
2023-02-03T14:11:34.988Z,8.40
2023-02-03T14:14:22.892Z,8.40
2023-02-03T14:17:34.850Z,8.30
2023-02-03T14:20:26.696Z,8.40
2023-02-03T14:23:25.827Z,8.40
2023-02-03T14:26:19.197Z,8.30
2023-02-03T14:29:06.178Z,8.30
2023-02-03T14:32:02.616Z,8.20
2023-02-03T14:34:50.025Z,8.20
2023-02-03T14:37:35.558Z,8.10
2023-02-03T14:41:00.709Z,8.30
2023-02-03T14:44:01.491Z,7.60
2023-02-03T14:47:08.964Z,8.40
2023-02-03T14:50:23.162Z,8.30
2023-02-03T14:53:21.740Z,8.30
2023-02-03T14:56:58.876Z,8.30
2023-02-03T14:59:55.678Z,8.20
2023-02-03T15:03:06.838Z,8.20
2023-02-03T15:06:03.775Z,8.30
2023-02-03T15:08:49.490Z,8.40
2023-02-03T15:11:44.923Z,8.40
2023-02-03T15:14:33.936Z,8.30
2023-02-03T15:17:27.817Z,8.30
2023-02-03T15:20:38.747Z,8.40
2023-02-03T15:23:29.975Z,8.30
2023-02-03T15:26:24.264Z,8.30
2023-02-03T15:29:32.279Z,8.30
2023-02-03T15:32:30.180Z,8.40
2023-02-03T15:35:17.950Z,8.30
2023-02-03T15:38:14.357Z,8.40
2023-02-03T15:40:59.799Z,8.40
2023-02-03T15:43:47.270Z,8.50
2023-02-03T15:46:43.114Z,8.40
2023-02-03T15:49:31.831Z,8.30
2023-02-03T15:52:21.919Z,8.30
2023-02-03T15:55:26.226Z,8.40
2023-02-03T15:58:27.728Z,8.40
2023-02-03T16:01:17.739Z,8.50
2023-02-03T16:04:11.431Z,8.30
2023-02-03T16:06:57.265Z,8.30
2023-02-03T16:09:42.827Z,8.30
2023-02-03T16:12:32.765Z,9.30
2023-02-03T16:15:23.691Z,8.30
2023-02-03T16:18:18.016Z,8.30
2023-02-03T16:21:05.453Z,8.30
2023-02-03T16:23:50.997Z,8.30
2023-02-03T16:26:38.386Z,8.20
2023-02-03T16:29:48.026Z,8.20
2023-02-03T16:32:52.098Z,8.10
2023-02-03T16:35:56.022Z,8.20
2023-02-03T16:39:07.733Z,8.40
2023-02-03T16:42:11.989Z,8.20
2023-02-03T16:45:17.533Z,8.20
2023-02-03T16:48:22.696Z,8.20
2023-02-03T16:51:17.079Z,8.30
2023-02-03T16:54:02.934Z,8.30
2023-02-03T16:56:49.359Z,8.30
2023-02-03T16:59:34.853Z,8.30
2023-02-03T17:02:20.355Z,8.30
2023-02-03T17:05:06.057Z,8.30
2023-02-03T17:07:51.251Z,8.20
2023-02-03T17:10:38.588Z,8.20
2023-02-03T17:13:24.564Z,8.30
2023-02-03T17:16:13.834Z,8.30
2023-02-03T17:18:59.762Z,8.20
2023-02-03T17:21:45.763Z,8.20
2023-02-03T17:24:31.265Z,8.20
2023-02-03T17:27:16.751Z,8.10
2023-02-03T17:30:02.328Z,8.30
2023-02-03T17:32:47.947Z,8.20
2023-02-03T17:35:33.339Z,8.10
2023-02-03T17:38:18.783Z,8.00
2023-02-03T17:53:23.967Z,8.00
2023-02-03T17:56:11.961Z,8.10
2023-02-03T17:58:59.633Z,7.80
2023-02-03T18:01:46.721Z,7.80
2023-02-03T18:04:32.057Z,7.80
2023-02-03T18:07:17.348Z,7.90
2023-02-03T18:10:03.029Z,8.10
2023-02-03T18:12:48.480Z,8.00
2023-02-03T18:15:34.228Z,7.90
2023-02-03T18:18:21.266Z,7.90
2023-02-03T18:21:07.518Z,7.90
2023-02-03T18:23:58.404Z,7.70
2023-02-03T18:26:49.862Z,7.70
2023-02-03T18:29:35.561Z,7.90
2023-02-03T18:32:21.108Z,7.80
2023-02-03T18:35:11.601Z,7.70
2023-02-03T18:37:56.880Z,7.70
2023-02-03T18:40:42.381Z,7.70
2023-02-03T18:43:27.866Z,7.70
2023-02-03T18:46:18.763Z,7.60
2023-02-03T18:49:09.218Z,7.70
2023-02-03T18:51:54.957Z,7.70
2023-02-03T18:54:40.659Z,7.60
2023-02-03T18:57:26.463Z,7.60
2023-02-03T19:00:14.047Z,7.70
2023-02-03T19:02:59.372Z,7.70
2023-02-03T19:05:44.902Z,7.80
2023-02-03T19:08:30.349Z,7.90
2023-02-03T19:11:16.186Z,8.00
2023-02-03T19:14:01.906Z,7.90
2023-02-03T19:16:50.297Z,8.10
2023-02-03T19:19:35.959Z,8.00
2023-02-03T19:22:21.422Z,8.00
2023-02-03T19:25:07.028Z,8.00
2023-02-03T19:27:52.708Z,8.00
2023-02-03T19:30:38.378Z,8.10
2023-02-03T19:33:24.403Z,8.00
2023-02-03T19:36:10.870Z,7.90
2023-02-03T19:38:56.793Z,8.10
2023-02-03T19:41:42.493Z,8.20
2023-02-03T19:44:27.866Z,8.20
2023-02-03T19:47:13.490Z,8.10
2023-02-03T19:49:58.774Z,8.10
2023-02-03T19:52:44.350Z,8.00
2023-02-03T19:55:31.879Z,8.00
2023-02-03T19:58:17.133Z,8.10
2023-02-03T20:01:02.692Z,8.20
2023-02-03T20:03:48.563Z,8.10
2023-02-03T20:06:34.273Z,8.00
2023-02-03T20:09:19.821Z,8.00
2023-02-03T20:12:05.457Z,8.10
2023-02-03T20:14:50.956Z,8.00
2023-02-03T20:17:36.702Z,8.00
2023-02-03T20:20:22.698Z,8.00
2023-02-03T20:23:08.436Z,7.90
2023-02-03T20:25:54.730Z,8.00
2023-02-03T20:28:40.418Z,8.10
2023-02-03T20:31:26.242Z,7.90
2023-02-03T20:34:12.084Z,7.90
2023-02-03T20:36:58.853Z,8.00
2023-02-03T20:39:44.713Z,8.00
2023-02-03T20:42:30.282Z,8.00
2023-02-03T20:45:17.952Z,8.00
2023-02-03T20:48:03.384Z,8.00
2023-02-03T20:50:50.170Z,8.00
2023-02-03T20:53:36.807Z,7.90
2023-02-03T20:56:22.923Z,8.00
2023-02-03T20:59:13.551Z,8.00
2023-02-03T21:02:07.731Z,8.00
2023-02-03T21:04:59.417Z,8.00
2023-02-03T21:07:44.600Z,8.00
2023-02-03T21:10:30.756Z,8.20
2023-02-03T21:13:24.507Z,8.00
2023-02-03T21:16:23.159Z,8.00
2023-02-03T21:19:14.261Z,8.00
2023-02-03T21:22:12.144Z,8.00
2023-02-03T21:24:59.871Z,8.00
2023-02-03T21:27:47.017Z,8.10
2023-02-03T21:30:34.928Z,8.00
2023-02-03T21:33:40.516Z,7.90
2023-02-03T21:36:30.110Z,7.90
2023-02-03T21:39:26.694Z,8.30
2023-02-03T21:42:41.412Z,7.60
2023-02-03T21:45:42.017Z,7.60
2023-02-03T21:48:42.869Z,7.70
2023-02-03T21:51:33.025Z,7.70
2023-02-03T21:54:34.179Z,7.60
2023-02-03T21:57:20.738Z,7.50
2023-02-03T22:00:47.880Z,7.60
2023-02-03T22:03:40.526Z,7.50
2023-02-03T22:06:41.830Z,7.50
2023-02-03T22:09:27.667Z,7.50
2023-02-03T22:12:13.279Z,7.60
2023-02-03T22:14:58.663Z,7.50
2023-02-03T22:17:44.113Z,7.50
2023-02-03T22:20:29.929Z,7.50
2023-02-03T22:23:15.626Z,7.40
2023-02-03T22:26:01.267Z,7.40
2023-02-03T22:28:46.796Z,7.50
2023-02-03T22:31:32.616Z,7.50
2023-02-03T22:34:19.119Z,7.50
2023-02-03T22:37:04.863Z,7.60
2023-02-03T22:39:50.340Z,7.60
2023-02-03T22:42:35.946Z,7.50
2023-02-03T22:45:21.796Z,7.50
2023-02-03T22:48:07.281Z,7.50
2023-02-03T22:50:52.757Z,7.50
2023-02-03T22:53:39.692Z,7.50
2023-02-03T22:56:25.350Z,7.40
2023-02-03T22:59:10.764Z,7.50
2023-02-03T23:01:56.405Z,7.40
2023-02-03T23:04:41.908Z,7.40
2023-02-03T23:07:27.388Z,7.30
2023-02-03T23:10:22.415Z,7.10
2023-02-03T23:13:08.163Z,7.10
2023-02-03T23:15:53.660Z,7.20
2023-02-03T23:18:39.174Z,7.20
2023-02-03T23:21:24.749Z,7.20
2023-02-03T23:24:10.030Z,7.30
2023-02-03T23:26:55.539Z,7.30
2023-02-03T23:29:41.381Z,7.30
2023-02-03T23:32:26.746Z,7.40
2023-02-03T23:35:30.642Z,7.40
2023-02-03T23:38:17.155Z,7.40
2023-02-03T23:41:02.536Z,7.40
2023-02-03T23:43:48.369Z,7.50
2023-02-03T23:46:33.766Z,7.40
2023-02-03T23:49:19.360Z,7.40
2023-02-03T23:52:04.976Z,7.50
2023-02-03T23:54:50.548Z,7.40
2023-02-03T23:57:36.131Z,7.50
